createdAt,value
2023-01-13T00:01:22.302Z,16.30
2023-01-13T00:06:20.479Z,26.30
2023-01-13T00:11:21.685Z,13.90
2023-01-13T00:16:19.936Z,11.10
2023-01-13T00:21:19.158Z,24.50
2023-01-13T00:26:18.330Z,17.00
2023-01-13T00:31:18.574Z,11.40
2023-01-13T00:36:18.090Z,12.30
2023-01-13T00:41:17.128Z,15.80
2023-01-13T00:46:15.356Z,13.90
2023-01-13T00:51:14.559Z,10.10
2023-01-13T00:56:13.774Z,8.80
2023-01-13T01:01:13.066Z,9.90
2023-01-13T01:06:12.289Z,9.50
2023-01-13T01:11:13.450Z,7.90
2023-01-13T01:16:11.701Z,9.40
2023-01-13T01:21:09.880Z,8.40
2023-01-13T01:26:09.055Z,9.60
2023-01-13T01:31:08.258Z,8.30
2023-01-13T01:36:09.436Z,9.00
2023-01-13T01:41:06.657Z,9.00
2023-01-13T01:46:05.819Z,9.20
2023-01-13T01:51:05.024Z,8.40
2023-01-13T01:56:04.208Z,8.10
2023-01-13T02:01:03.481Z,8.00
2023-01-13T02:06:02.544Z,6.60
2023-01-13T02:11:01.693Z,6.30
2023-01-13T02:16:01.907Z,6.40
2023-01-13T02:21:00.111Z,4.60
2023-01-13T02:25:59.291Z,4.60
2023-01-13T02:30:58.423Z,4.40
2023-01-13T02:35:58.567Z,4.00
2023-01-13T02:40:56.751Z,3.90
2023-01-13T02:45:56.000Z,3.20
2023-01-13T02:50:56.253Z,3.70
2023-01-13T02:55:54.383Z,3.40
2023-01-13T03:00:54.530Z,2.50
2023-01-13T03:05:53.669Z,3.50
2023-01-13T03:10:52.773Z,3.20
2023-01-13T03:15:53.068Z,2.70
2023-01-13T03:20:51.344Z,3.50
2023-01-13T03:25:49.644Z,3.90
2023-01-13T03:30:50.980Z,2.00
2023-01-13T03:35:47.106Z,3.60
2023-01-13T03:40:46.369Z,2.30
2023-01-13T03:45:47.507Z,2.30
2023-01-13T03:50:45.636Z,1.90
2023-01-13T03:55:44.782Z,1.40
2023-01-13T04:00:45.099Z,1.60
2023-01-13T04:05:43.250Z,1.60
2023-01-13T04:10:43.559Z,1.90
2023-01-13T04:15:42.928Z,1.50
2023-01-13T04:20:41.045Z,2.00
2023-01-13T04:25:40.340Z,1.90
2023-01-13T04:30:39.682Z,1.00
2023-01-13T04:35:38.825Z,1.70
2023-01-13T04:40:39.147Z,1.80
2023-01-13T04:45:37.441Z,1.70
2023-01-13T04:50:37.755Z,1.60
2023-01-13T04:55:36.031Z,1.90
2023-01-13T05:00:35.354Z,1.10
2023-01-13T05:05:34.683Z,1.90
2023-01-13T05:10:34.012Z,1.30
2023-01-13T05:15:33.221Z,1.80
2023-01-13T05:20:34.358Z,1.60
2023-01-13T05:25:30.639Z,1.80
2023-01-13T05:30:30.992Z,2.20
2023-01-13T05:35:30.116Z,1.80
2023-01-13T05:40:29.448Z,1.70
2023-01-13T05:45:29.754Z,2.70
2023-01-13T05:50:28.092Z,1.50
2023-01-13T05:55:27.229Z,1.70
2023-01-13T06:00:27.387Z,2.30
2023-01-13T06:05:25.734Z,2.60
2023-01-13T06:10:24.835Z,2.90
2023-01-13T06:15:24.348Z,2.40
2023-01-13T06:20:25.455Z,2.70
2023-01-13T06:25:24.725Z,2.30
2023-01-13T06:30:21.057Z,2.50
2023-01-13T06:35:21.382Z,3.00
2023-01-13T06:40:21.506Z,2.10
2023-01-13T06:45:19.671Z,2.20
2023-01-13T06:50:19.806Z,2.20
2023-01-13T06:55:18.155Z,2.60
2023-01-13T07:00:17.306Z,2.30
2023-01-13T07:05:17.426Z,1.80
2023-01-13T07:10:16.786Z,1.80
2023-01-13T07:15:14.924Z,2.20
2023-01-13T07:20:15.235Z,2.00
2023-01-13T07:25:13.551Z,2.40
2023-01-13T07:30:13.894Z,3.40
2023-01-13T07:35:13.189Z,2.70
2023-01-13T07:40:13.508Z,3.90
2023-01-13T07:45:12.305Z,2.90
2023-01-13T07:50:09.951Z,6.30
2023-01-13T07:55:10.267Z,5.80
2023-01-13T08:00:08.597Z,5.10
2023-01-13T08:05:07.926Z,6.00
2023-01-13T08:10:08.063Z,4.40
2023-01-13T08:15:06.403Z,4.10
2023-01-13T08:20:07.514Z,5.10
2023-01-13T08:25:04.850Z,5.70
2023-01-13T08:30:06.047Z,4.20
2023-01-13T08:35:04.165Z,5.10
2023-01-13T08:40:03.500Z,3.90
2023-01-13T08:45:02.816Z,2.90
2023-01-13T08:50:01.106Z,4.60
2023-01-13T08:55:00.417Z,3.50
2023-01-13T09:00:00.746Z,5.50
2023-01-13T09:04:59.060Z,4.50
2023-01-13T09:09:58.387Z,7.90
2023-01-13T09:14:57.717Z,4.70
2023-01-13T09:19:57.038Z,5.10
2023-01-13T09:24:56.351Z,5.30
2023-01-13T09:29:55.643Z,6.70
2023-01-13T09:34:56.942Z,6.60
2023-01-13T09:39:54.238Z,5.50
2023-01-13T09:44:53.566Z,5.80
2023-01-13T09:49:52.919Z,5.80
2023-01-13T09:54:53.032Z,6.00
2023-01-13T09:59:51.370Z,4.80
2023-01-13T10:04:50.699Z,5.80
2023-01-13T10:09:50.060Z,4.30
2023-01-13T10:14:47.987Z,5.30
2023-01-13T10:19:49.332Z,5.00
2023-01-13T10:24:47.609Z,4.00
2023-01-13T10:29:46.907Z,5.60
2023-01-13T10:34:47.202Z,3.80
2023-01-13T10:39:45.487Z,4.30
2023-01-13T10:44:44.809Z,5.80
2023-01-13T10:49:44.096Z,4.70
2023-01-13T10:54:44.402Z,2.70
2023-01-13T10:59:42.694Z,3.80
2023-01-13T11:04:42.010Z,3.90
2023-01-13T11:09:41.297Z,3.00
2023-01-13T11:14:42.631Z,3.10
2023-01-13T11:19:39.963Z,4.60
2023-01-13T11:24:40.177Z,4.70
2023-01-13T11:29:38.289Z,3.80
2023-01-13T11:34:38.616Z,3.20
2023-01-13T11:39:37.927Z,2.70
2023-01-13T11:44:36.250Z,2.70
2023-01-13T11:49:35.556Z,3.30
2023-01-13T11:54:34.826Z,4.00
2023-01-13T11:59:35.122Z,2.40
2023-01-13T12:04:32.419Z,2.90
2023-01-13T12:09:32.762Z,2.90
2023-01-13T12:14:33.100Z,2.80
2023-01-13T12:19:31.362Z,2.00
2023-01-13T12:24:30.663Z,2.20
2023-01-13T12:29:32.010Z,1.30
2023-01-13T12:34:29.335Z,3.50
2023-01-13T12:39:28.659Z,2.10
2023-01-13T12:44:28.992Z,1.40
2023-01-13T12:49:29.301Z,1.80
2023-01-13T12:54:30.641Z,1.50
2023-01-13T12:59:26.933Z,1.40
2023-01-13T13:04:26.247Z,1.00
2023-01-13T13:09:24.560Z,1.40
2023-01-13T13:14:22.888Z,2.60
2023-01-13T13:19:24.199Z,1.10
2023-01-13T13:24:22.524Z,1.50
2023-01-13T13:29:23.839Z,1.30
2023-01-13T13:34:21.166Z,1.50
2023-01-13T13:39:22.496Z,1.40
2023-01-13T13:44:20.661Z,1.30
2023-01-13T13:49:19.971Z,1.20
2023-01-13T13:54:19.346Z,0.90
2023-01-13T13:59:17.440Z,0.90
2023-01-13T14:04:16.766Z,1.20
2023-01-13T14:09:17.005Z,2.90
2023-01-13T14:14:15.281Z,1.10
2023-01-13T14:19:14.580Z,0.60
2023-01-13T14:24:14.897Z,0.80
2023-01-13T14:29:15.199Z,0.30
2023-01-13T14:34:32.357Z,0.50
2023-01-13T14:39:12.683Z,1.40
2023-01-13T14:44:12.018Z,0.90
2023-01-13T14:49:11.110Z,3.60
2023-01-13T14:54:10.430Z,1.70
2023-01-13T14:59:08.611Z,0.70
2023-01-13T15:04:09.948Z,1.80
2023-01-13T15:09:07.082Z,1.20
2023-01-13T15:14:07.450Z,2.30
2023-01-13T15:19:05.608Z,0.60
2023-01-13T15:24:05.733Z,0.60
2023-01-13T15:29:04.045Z,1.30
2023-01-13T15:34:04.369Z,1.00
2023-01-13T15:39:03.493Z,0.50
2023-01-13T15:44:01.850Z,1.60
2023-01-13T15:49:02.158Z,0.90
2023-01-13T15:54:01.472Z,2.60
2023-01-13T15:58:59.785Z,1.40
2023-01-13T16:03:59.090Z,2.20
2023-01-13T16:08:59.398Z,0.70
2023-01-13T16:13:58.736Z,1.40
2023-01-13T16:18:59.035Z,1.40
2023-01-13T16:23:56.324Z,1.30
2023-01-13T16:28:56.630Z,1.30
2023-01-13T16:33:55.951Z,2.50
2023-01-13T16:38:54.307Z,2.10
2023-01-13T16:43:54.423Z,2.30
2023-01-13T16:48:54.776Z,4.50
2023-01-13T16:53:52.074Z,3.30
2023-01-13T16:58:51.409Z,12.20
2023-01-13T17:03:50.933Z,77.70
2023-01-13T17:08:50.087Z,49.30
2023-01-13T17:13:49.108Z,38.00
2023-01-13T17:18:48.201Z,33.70
2023-01-13T17:23:47.435Z,29.60
2023-01-13T17:28:46.691Z,24.30
2023-01-13T17:33:45.862Z,24.70
2023-01-13T17:38:45.307Z,16.60
2023-01-13T17:43:43.376Z,19.80
2023-01-13T17:48:43.552Z,20.30
2023-01-13T17:53:42.680Z,13.90
2023-01-13T17:58:42.013Z,14.00
2023-01-13T18:03:41.172Z,12.30
2023-01-13T18:08:40.541Z,12.30
2023-01-13T18:13:40.793Z,13.70
2023-01-13T18:18:38.999Z,11.80
2023-01-13T18:23:39.184Z,13.60
2023-01-13T18:28:38.349Z,9.00
2023-01-13T18:33:36.665Z,12.00
2023-01-13T18:38:37.192Z,9.10
2023-01-13T18:43:35.156Z,6.20
2023-01-13T18:48:35.742Z,8.50
2023-01-13T18:53:33.924Z,8.80
2023-01-13T18:58:32.867Z,8.60
2023-01-13T19:03:32.161Z,11.20
2023-01-13T19:08:36.025Z,7.40
2023-01-13T19:13:31.791Z,9.80
2023-01-13T19:18:31.076Z,31.40
2023-01-13T19:23:31.247Z,72.10
2023-01-13T19:28:30.620Z,78.10
2023-01-13T19:33:29.939Z,58.50
2023-01-13T19:38:27.269Z,71.80
2023-01-13T19:43:39.354Z,125.90
2023-01-13T19:48:36.903Z,171.90
2023-01-13T19:53:26.205Z,69.40
2023-01-13T19:58:25.838Z,69.70
2023-01-13T20:03:23.866Z,104.40
2023-01-13T20:08:23.325Z,120.20
2023-01-13T20:13:22.282Z,169.50
2023-01-13T20:18:21.600Z,102.90
2023-01-13T20:23:20.271Z,287.70
2023-01-13T20:28:21.265Z,174.60
2023-01-13T20:33:21.481Z,260.80
2023-01-13T20:38:17.434Z,201.60
2023-01-13T20:43:17.824Z,199.40
2023-01-13T20:48:18.151Z,107.60
2023-01-13T20:53:16.326Z,116.20
2023-01-13T20:58:15.731Z,81.60
2023-01-13T21:03:15.085Z,80.40
2023-01-13T21:08:13.799Z,101.00
2023-01-13T21:13:14.136Z,62.40
2023-01-13T21:18:13.619Z,49.50
2023-01-13T21:23:12.724Z,46.10
2023-01-13T21:28:12.070Z,38.40
2023-01-13T21:33:11.184Z,34.10
2023-01-13T21:38:10.512Z,26.80
2023-01-13T21:43:08.836Z,21.80
2023-01-13T21:48:07.969Z,21.30
2023-01-13T21:53:07.293Z,23.20
2023-01-13T21:58:06.468Z,26.70
2023-01-13T22:03:06.633Z,20.60
2023-01-13T22:08:06.803Z,70.40
2023-01-13T22:13:03.909Z,94.60
2023-01-13T22:18:04.257Z,113.80
2023-01-13T22:23:03.452Z,230.30
2023-01-13T22:28:03.651Z,124.80
2023-01-13T22:33:00.879Z,114.70
2023-01-13T22:38:00.051Z,122.40
2023-01-13T22:42:59.233Z,121.60
2023-01-13T22:47:59.453Z,84.50
2023-01-13T22:52:57.669Z,74.60
2023-01-13T22:57:57.104Z,93.60
2023-01-13T23:02:56.315Z,155.70
2023-01-13T23:07:56.501Z,97.80
2023-01-13T23:12:55.464Z,86.00
2023-01-13T23:17:54.641Z,66.30
2023-01-13T23:22:53.795Z,95.20
2023-01-13T23:27:52.968Z,123.90
2023-01-13T23:32:51.158Z,113.70
2023-01-13T23:37:50.323Z,162.60
2023-01-13T23:42:51.615Z,93.10
2023-01-13T23:47:48.906Z,73.00
2023-01-13T23:52:48.214Z,92.90
2023-01-13T23:57:47.526Z,83.20
